NCAR-RAP Real-Time Weather Data

Output produced by METARs form (14 October 2019  22:36 UTC)
found at http://weather.rap.ucar.edu/surface/
 
KALB 142151Z 31014KT 10SM BKN085 16/06 A2994 RMK AO2 SLP138 T01610056
KALB 142051Z 30010KT 10SM BKN090 18/06 A2989 RMK AO2 WSHFT 1941 SLP122 T01830056 53005
KALB 142001Z 33009KT 10SM BKN085 21/07 A2987 RMK AO2 WSHFT 1941 T02060067
KALB 141951Z 33011G21KT 10SM BKN085 22/07 A2987 RMK AO2 SLP115 T02170067
KALB 141851Z 16007KT 10SM SCT085 SCT120 21/07 A2987 RMK AO2 SLP114 T02060072
KALB 141751Z 15008KT 10SM FEW045 21/08 A2988 RMK AO2 SLP117 T02060078 10206 20044 58026
KALB 141651Z COR 17008KT 140V200 10SM FEW040 FEW090 19/09 A2991 RMK AO2 SLP128 T01890094
KALB 141551Z 16009KT 10SM FEW032 FEW090 17/09 A2993 RMK AO2 SLP137 T01720094
KALB 141451Z 16009KT 10SM FEW020 FEW150 14/09 A2996 RMK AO2 SLP144 T01440089 58006
KALB 141351Z 18009KT 10SM FEW015 FEW150 FEW250 12/08 A2998 RMK AO2 SLP152 T01220078
KALB 141251Z 19003KT 10SM BCFG FEW001 FEW150 FEW250 08/06 A2998 RMK AO2 SLP152 VIS N 2 BCFG NW-N T00830061
KALB 141151Z 00000KT 10SM BCFG FEW001 FEW250 04/03 A2997 RMK AO2 SLP151 VIS NW-N 3/4 BCFG NW-N T00440033 10067 20033 55000
KALB 141137Z 00000KT 10SM BCFG FEW001 FEW250 04/02 A2997 RMK AO2 VIS NW-NE 1/2 BCFG NW-NE T00440022
KALB 141110Z 00000KT 3/4SM R01/P6000FT BCFG BR FEW001 FEW250 03/02 A2997 RMK AO2 VIS E-S 10 BCFG SW-NW-NE T00330017
KALB 141051Z 00000KT 10SM BCFG FEW001 FEW250 04/03 A2997 RMK AO2 SLP149 VIS N 1 BCFG NW-NE T00440028
KALB 140951Z 00000KT 10SM FEW250 04/02 A2997 RMK AO2 SLP150 T00390022
KALB 140903Z 00000KT 4SM BCFG BR SCT002 05/03 A2997 RMK AO2 BCFG NW-E-S T00500033
KALB 140857Z 34003KT 1 1/2SM R01/4000VP6000FT BCFG BR BKN002 04/03 A2998 RMK AO2 TWR VIS 4 VIS 3/4V2 1/2 BCFG ALQDS T00440033
KALB 140851Z 33003KT 1/2SM R01/4000VP6000FT FG BKN002 04/03 A2997 RMK AO2 TWR VIS 4 SLP150 T00440028 55002
KALB 140846Z 34004KT 1/2SM R01/3500VP6000FT FG SCT002 04/03 A2997 RMK AO2 TWR VIS 4
KALB 140840Z 33003KT 2SM R01/2200VP6000FT BCFG BR FEW002 04/03 A2996 RMK AO2 BCFG ALQDS T00440028
KALB 140751Z 00000KT 10SM CLR 06/03 A2995 RMK AO2 SLP143 T00560028
KALB 140651Z 00000KT 10SM CLR 06/04 A2997 RMK AO2 SLP149 T00610039
KALB 140551Z 00000KT 10SM CLR 07/04 A2998 RMK AO2 SLP152 T00670044 10128 20056 58009
KALB 140451Z 00000KT 10SM FEW250 07/05 A3000 RMK AO2 SLP158 T00720050 401670056
KALB 140351Z 00000KT 10SM SCT250 08/04 A3000 RMK AO2 SLP160 T00780044
KALB 140251Z 34005KT 10SM SCT250 08/05 A3000 RMK AO2 SLP161 T00830050 56004
KALB 140151Z 17005KT 10SM FEW220 SCT250 12/05 A3001 RMK AO2 SLP161 SCT V BKN T01170050
KALB 140051Z 00000KT 10SM SCT220 BKN250 12/05 A3001 RMK AO2 SLP164 T01220050
KALB 132351Z 00000KT 10SM FEW200 BKN250 12/05 A3002 RMK AO2 SLP166 T01220050 10167 20122 56004
KALB 132251Z 16004KT 10SM FEW200 BKN250 14/04 A3002 RMK AO2 SLP166 T01390044
KALB 132151Z 17006KT 10SM FEW200 BKN250 15/04 A3001 RMK AO2 SLP162 T01500039
KALB 132051Z 16004KT 10SM FEW200 BKN250 16/03 A3003 RMK AO2 SLP169 T01610033 56015
KALB 131951Z 18004KT 10SM FEW200 BKN250 16/03 A3004 RMK AO2 SLP174 T01610033
KALB 131851Z 13003KT 10SM FEW200 SCT250 16/03 A3005 RMK AO2 SLP176 T01610033
KALB 131751Z VRB03KT 10SM FEW200 SCT250 16/04 A3007 RMK AO2 SLP184 T01560044 10161 20061 58024
KALB 131651Z VRB04KT 10SM FEW200 SCT250 14/04 A3010 RMK AO2 SLP193 T01440044
KALB 131551Z VRB04KT 10SM FEW040 SCT200 BKN250 13/05 A3012 RMK AO2 SLP199 T01330050
KALB 131451Z VRB03KT 10SM FEW040 BKN250 13/06 A3014 RMK AO2 SLP208 T01280056 51006
KALB 131351Z 28004KT 10SM FEW050 BKN250 11/06 A3014 RMK AO2 SLP207 T01110061
KALB 131251Z 34006KT 10SM FEW060 BKN250 10/07 A3014 RMK AO2 SLP205 T01000067
KALB 131151Z 29005KT 10SM FEW060 SCT250 07/04 A3012 RMK AO2 SLP201 T00720044 10122 20056 53016
KALB 131051Z 00000KT 10SM FEW060 FEW250 06/04 A3011 RMK AO2 SLP195 T00610039
KALB 130951Z 00000KT 10SM FEW060 07/04 A3009 RMK AO2 SLP190 T00670044
KALB 130851Z 00000KT 10SM FEW060 08/06 A3008 RMK AO2 SLP185 T00830056 51011
KALB 130751Z 29005KT 10SM SCT055 09/06 A3007 RMK AO2 SLP183 T00940056
KALB 130651Z 28005KT 10SM BKN055 11/06 A3005 RMK AO2 SLP178 T01110061
KALB 130551Z 29009KT 10SM OVC050 12/06 A3005 RMK AO2 SLP175 T01220061 10161 20122 53012
KALB 130451Z 28006KT 10SM FEW025 OVC049 13/07 A3003 RMK AO2 SLP170 T01330072 401890067
KALB 130351Z 28012KT 10SM FEW016 SCT020 OVC045 13/07 A3001 RMK AO2 SLP163 T01330072
KALB 130344Z 28009KT 10SM FEW016 SCT020 OVC045 14/07 A3001 RMK AO2 T01390067
KALB 130251Z 29009KT 10SM FEW016 BKN020 OVC040 14/08 A3001 RMK AO2 SLP162 BKN V SCT T01390078 51016
KALB 130236Z 31009KT 10SM FEW016 BKN020 OVC040 14/09 A3001 RMK AO2 T01440089
KALB 130151Z 28009KT 10SM FEW020 OVC037 15/10 A3000 RMK AO2 SLP158 T01500100
KALB 130051Z 28010KT 10SM FEW028 OVC035 16/10 A2998 RMK AO2 SLP152 T01560100
KALB 122351Z 28007KT 10SM BKN037 OVC100 16/10 A2996 RMK AO2 DZB36E49 SLP146 P0000 60000 T01610100 10189 20156 53011
KALB 122251Z 31003KT 10SM BKN043 BKN075 BKN210 16/10 A2995 RMK AO2 SLP141 T01610100